sensor_id;sensor_type;location;lat;lon;timestamp;P1;durP1;ratioP1;P2;durP2;ratioP2
65853;SDS011;52627;48.838;2.402;2022-10-14T00:01:18;8.30;;;6.00;;
65853;SDS011;52627;48.838;2.402;2022-10-14T00:03:46;8.60;;;5.30;;
65853;SDS011;52627;48.838;2.402;2022-10-14T00:06:17;10.40;;;6.10;;
65853;SDS011;52627;48.838;2.402;2022-10-14T00:08:46;10.60;;;5.90;;
65853;SDS011;52627;48.838;2.402;2022-10-14T00:11:17;9.50;;;5.80;;
65853;SDS011;52627;48.838;2.402;2022-10-14T00:13:46;8.10;;;5.60;;
65853;SDS011;52627;48.838;2.402;2022-10-14T00:16:21;9.40;;;6.10;;
65853;SDS011;52627;48.838;2.402;2022-10-14T00:18:50;9.80;;;5.60;;
65853;SDS011;52627;48.838;2.402;2022-10-14T00:21:18;9.00;;;6.10;;
65853;SDS011;52627;48.838;2.402;2022-10-14T00:23:46;8.80;;;5.30;;
65853;SDS011;52627;48.838;2.402;2022-10-14T00:26:27;8.90;;;5.80;;
65853;SDS011;52627;48.838;2.402;2022-10-14T00:28:57;7.60;;;5.40;;
65853;SDS011;52627;48.838;2.402;2022-10-14T00:31:26;7.90;;;5.50;;
65853;SDS011;52627;48.838;2.402;2022-10-14T00:33:55;8.50;;;5.30;;
65853;SDS011;52627;48.838;2.402;2022-10-14T00:36:23;7.10;;;4.90;;
65853;SDS011;52627;48.838;2.402;2022-10-14T00:38:53;8.20;;;5.70;;
65853;SDS011;52627;48.838;2.402;2022-10-14T00:41:24;7.60;;;5.20;;
65853;SDS011;52627;48.838;2.402;2022-10-14T00:43:57;8.30;;;5.60;;
65853;SDS011;52627;48.838;2.402;2022-10-14T00:46:35;9.80;;;5.20;;
65853;SDS011;52627;48.838;2.402;2022-10-14T00:51:40;7.20;;;4.40;;
65853;SDS011;52627;48.838;2.402;2022-10-14T00:54:12;7.80;;;4.90;;
65853;SDS011;52627;48.838;2.402;2022-10-14T00:56:43;7.50;;;4.70;;
65853;SDS011;52627;48.838;2.402;2022-10-14T00:59:11;7.60;;;4.80;;
65853;SDS011;52627;48.838;2.402;2022-10-14T01:01:39;8.30;;;4.70;;
65853;SDS011;52627;48.838;2.402;2022-10-14T01:04:06;6.90;;;4.50;;
65853;SDS011;52627;48.838;2.402;2022-10-14T01:07:04;7.30;;;5.10;;
65853;SDS011;52627;48.838;2.402;2022-10-14T01:13:09;6.80;;;4.20;;
65853;SDS011;52627;48.838;2.402;2022-10-14T01:21:54;6.10;;;4.50;;
65853;SDS011;52627;48.838;2.402;2022-10-14T01:30:19;5.80;;;3.90;;
65853;SDS011;52627;48.838;2.402;2022-10-14T01:33:08;7.00;;;4.40;;
65853;SDS011;52627;48.838;2.402;2022-10-14T01:38:48;6.10;;;4.00;;
65853;SDS011;52627;48.838;2.402;2022-10-14T01:41:27;6.40;;;4.20;;
65853;SDS011;52627;48.838;2.402;2022-10-14T01:44:00;6.80;;;4.60;;
65853;SDS011;52627;48.838;2.402;2022-10-14T01:46:30;6.70;;;4.30;;
65853;SDS011;52627;48.838;2.402;2022-10-14T01:49:03;6.60;;;4.00;;
65853;SDS011;52627;48.838;2.402;2022-10-14T01:51:42;6.20;;;4.00;;
65853;SDS011;52627;48.838;2.402;2022-10-14T01:54:15;5.70;;;4.10;;
65853;SDS011;52627;48.838;2.402;2022-10-14T01:56:47;7.20;;;4.00;;
65853;SDS011;52627;48.838;2.402;2022-10-14T01:59:17;6.90;;;4.30;;
65853;SDS011;52627;48.838;2.402;2022-10-14T02:01:46;6.80;;;4.60;;
65853;SDS011;52627;48.838;2.402;2022-10-14T02:04:22;5.90;;;4.10;;
65853;SDS011;52627;48.838;2.402;2022-10-14T02:07:06;6.90;;;4.40;;
65853;SDS011;52627;48.838;2.402;2022-10-14T02:09:47;6.40;;;4.10;;
65853;SDS011;52627;48.838;2.402;2022-10-14T02:12:36;7.20;;;4.90;;
65853;SDS011;52627;48.838;2.402;2022-10-14T02:15:28;7.20;;;4.60;;
65853;SDS011;52627;48.838;2.402;2022-10-14T02:21:19;6.00;;;4.10;;
65853;SDS011;52627;48.838;2.402;2022-10-14T02:24:17;7.60;;;4.30;;
65853;SDS011;52627;48.838;2.402;2022-10-14T02:26:49;7.80;;;4.50;;
65853;SDS011;52627;48.838;2.402;2022-10-14T02:29:18;8.40;;;5.20;;
65853;SDS011;52627;48.838;2.402;2022-10-14T02:31:47;7.40;;;4.50;;
65853;SDS011;52627;48.838;2.402;2022-10-14T02:34:18;8.60;;;5.40;;
65853;SDS011;52627;48.838;2.402;2022-10-14T02:36:47;8.90;;;5.10;;
65853;SDS011;52627;48.838;2.402;2022-10-14T02:39:21;8.40;;;5.20;;
65853;SDS011;52627;48.838;2.402;2022-10-14T02:41:52;8.90;;;5.50;;
65853;SDS011;52627;48.838;2.402;2022-10-14T02:44:19;8.90;;;5.50;;
65853;SDS011;52627;48.838;2.402;2022-10-14T02:46:47;9.80;;;5.60;;
65853;SDS011;52627;48.838;2.402;2022-10-14T02:49:15;7.90;;;5.20;;
65853;SDS011;52627;48.838;2.402;2022-10-14T02:51:43;10.00;;;5.60;;
65853;SDS011;52627;48.838;2.402;2022-10-14T02:54:10;11.00;;;6.70;;
65853;SDS011;52627;48.838;2.402;2022-10-14T02:56:38;8.40;;;4.80;;
65853;SDS011;52627;48.838;2.402;2022-10-14T02:59:06;8.70;;;5.00;;
65853;SDS011;52627;48.838;2.402;2022-10-14T03:01:33;8.00;;;5.00;;
65853;SDS011;52627;48.838;2.402;2022-10-14T03:04:04;8.40;;;5.70;;
65853;SDS011;52627;48.838;2.402;2022-10-14T03:06:31;8.10;;;4.90;;
65853;SDS011;52627;48.838;2.402;2022-10-14T03:08:58;9.60;;;5.60;;
65853;SDS011;52627;48.838;2.402;2022-10-14T03:11:26;8.90;;;5.50;;
65853;SDS011;52627;48.838;2.402;2022-10-14T03:13:53;8.90;;;5.80;;
65853;SDS011;52627;48.838;2.402;2022-10-14T03:16:20;8.40;;;5.20;;
65853;SDS011;52627;48.838;2.402;2022-10-14T03:18:48;9.70;;;5.10;;
65853;SDS011;52627;48.838;2.402;2022-10-14T03:21:15;9.80;;;5.60;;
65853;SDS011;52627;48.838;2.402;2022-10-14T03:23:43;9.40;;;5.60;;
65853;SDS011;52627;48.838;2.402;2022-10-14T03:26:10;8.50;;;5.30;;
65853;SDS011;52627;48.838;2.402;2022-10-14T03:28:40;8.30;;;4.90;;
65853;SDS011;52627;48.838;2.402;2022-10-14T03:31:08;9.20;;;5.40;;
65853;SDS011;52627;48.838;2.402;2022-10-14T03:33:35;7.30;;;4.60;;
65853;SDS011;52627;48.838;2.402;2022-10-14T03:36:03;7.80;;;4.70;;
65853;SDS011;52627;48.838;2.402;2022-10-14T03:38:30;8.70;;;4.60;;
65853;SDS011;52627;48.838;2.402;2022-10-14T03:40:57;8.80;;;5.10;;
65853;SDS011;52627;48.838;2.402;2022-10-14T03:43:25;7.10;;;4.10;;
65853;SDS011;52627;48.838;2.402;2022-10-14T03:45:54;7.90;;;4.40;;
65853;SDS011;52627;48.838;2.402;2022-10-14T03:48:21;11.70;;;4.60;;
65853;SDS011;52627;48.838;2.402;2022-10-14T03:50:49;6.60;;;4.20;;
65853;SDS011;52627;48.838;2.402;2022-10-14T03:53:17;8.90;;;4.40;;
65853;SDS011;52627;48.838;2.402;2022-10-14T03:55:45;8.70;;;4.30;;
65853;SDS011;52627;48.838;2.402;2022-10-14T03:58:12;7.10;;;4.10;;
65853;SDS011;52627;48.838;2.402;2022-10-14T04:00:40;5.90;;;3.70;;
65853;SDS011;52627;48.838;2.402;2022-10-14T04:03:07;6.90;;;3.50;;
65853;SDS011;52627;48.838;2.402;2022-10-14T04:05:34;6.00;;;3.50;;
65853;SDS011;52627;48.838;2.402;2022-10-14T04:08:03;5.70;;;3.00;;
65853;SDS011;52627;48.838;2.402;2022-10-14T04:10:30;5.60;;;3.20;;
65853;SDS011;52627;48.838;2.402;2022-10-14T04:12:58;6.40;;;3.10;;
65853;SDS011;52627;48.838;2.402;2022-10-14T04:15:25;5.50;;;3.20;;
65853;SDS011;52627;48.838;2.402;2022-10-14T04:17:53;5.40;;;3.00;;
65853;SDS011;52627;48.838;2.402;2022-10-14T04:20:22;5.10;;;3.00;;
65853;SDS011;52627;48.838;2.402;2022-10-14T04:22:50;5.90;;;3.30;;
65853;SDS011;52627;48.838;2.402;2022-10-14T04:25:17;5.40;;;3.00;;
65853;SDS011;52627;48.838;2.402;2022-10-14T04:27:44;5.80;;;2.70;;
65853;SDS011;52627;48.838;2.402;2022-10-14T04:30:12;6.60;;;2.60;;
65853;SDS011;52627;48.838;2.402;2022-10-14T04:32:39;4.50;;;2.20;;
65853;SDS011;52627;48.838;2.402;2022-10-14T04:35:07;4.00;;;2.30;;
65853;SDS011;52627;48.838;2.402;2022-10-14T04:37:35;4.00;;;2.20;;
65853;SDS011;52627;48.838;2.402;2022-10-14T04:40:03;3.60;;;2.00;;
65853;SDS011;52627;48.838;2.402;2022-10-14T04:42:31;3.80;;;2.00;;
65853;SDS011;52627;48.838;2.402;2022-10-14T04:44:59;3.60;;;2.10;;
65853;SDS011;52627;48.838;2.402;2022-10-14T04:47:26;4.00;;;2.10;;
65853;SDS011;52627;48.838;2.402;2022-10-14T04:49:53;3.80;;;2.00;;
65853;SDS011;52627;48.838;2.402;2022-10-14T04:52:21;3.80;;;1.90;;
65853;SDS011;52627;48.838;2.402;2022-10-14T04:54:49;3.70;;;2.10;;
65853;SDS011;52627;48.838;2.402;2022-10-14T04:57:16;4.90;;;2.50;;
65853;SDS011;52627;48.838;2.402;2022-10-14T04:59:43;5.70;;;2.10;;
65853;SDS011;52627;48.838;2.402;2022-10-14T05:02:11;3.30;;;1.90;;
65853;SDS011;52627;48.838;2.402;2022-10-14T05:04:38;3.80;;;2.00;;
65853;SDS011;52627;48.838;2.402;2022-10-14T05:07:06;3.70;;;2.20;;
65853;SDS011;52627;48.838;2.402;2022-10-14T05:09:33;3.60;;;2.20;;
65853;SDS011;52627;48.838;2.402;2022-10-14T05:12:00;4.20;;;2.00;;
65853;SDS011;52627;48.838;2.402;2022-10-14T05:14:28;3.80;;;2.00;;
65853;SDS011;52627;48.838;2.402;2022-10-14T05:16:56;3.30;;;1.80;;
65853;SDS011;52627;48.838;2.402;2022-10-14T05:19:23;3.50;;;1.80;;
65853;SDS011;52627;48.838;2.402;2022-10-14T05:21:51;3.40;;;1.70;;
65853;SDS011;52627;48.838;2.402;2022-10-14T05:24:18;3.00;;;1.80;;
65853;SDS011;52627;48.838;2.402;2022-10-14T05:26:46;4.70;;;1.80;;
65853;SDS011;52627;48.838;2.402;2022-10-14T05:29:13;3.30;;;1.90;;
65853;SDS011;52627;48.838;2.402;2022-10-14T05:31:41;3.90;;;2.10;;
65853;SDS011;52627;48.838;2.402;2022-10-14T05:34:10;3.50;;;2.00;;
65853;SDS011;52627;48.838;2.402;2022-10-14T05:36:38;4.90;;;2.40;;
65853;SDS011;52627;48.838;2.402;2022-10-14T05:39:06;3.40;;;2.00;;
65853;SDS011;52627;48.838;2.402;2022-10-14T05:41:34;3.50;;;1.90;;
65853;SDS011;52627;48.838;2.402;2022-10-14T05:44:03;3.50;;;2.10;;
65853;SDS011;52627;48.838;2.402;2022-10-14T05:46:31;5.60;;;2.00;;
65853;SDS011;52627;48.838;2.402;2022-10-14T05:48:58;4.20;;;1.70;;
65853;SDS011;52627;48.838;2.402;2022-10-14T05:51:28;5.00;;;2.40;;
65853;SDS011;52627;48.838;2.402;2022-10-14T05:53:55;4.80;;;2.50;;
65853;SDS011;52627;48.838;2.402;2022-10-14T05:56:23;3.80;;;2.30;;
65853;SDS011;52627;48.838;2.402;2022-10-14T05:58:50;3.80;;;2.40;;
65853;SDS011;52627;48.838;2.402;2022-10-14T06:01:17;4.70;;;2.20;;
65853;SDS011;52627;48.838;2.402;2022-10-14T06:03:49;5.00;;;2.30;;
65853;SDS011;52627;48.838;2.402;2022-10-14T06:06:20;5.10;;;2.70;;
65853;SDS011;52627;48.838;2.402;2022-10-14T06:08:55;5.60;;;2.70;;
65853;SDS011;52627;48.838;2.402;2022-10-14T06:11:23;4.90;;;2.40;;
65853;SDS011;52627;48.838;2.402;2022-10-14T06:13:51;5.50;;;2.80;;
65853;SDS011;52627;48.838;2.402;2022-10-14T06:16:18;5.20;;;3.30;;
65853;SDS011;52627;48.838;2.402;2022-10-14T06:18:46;6.60;;;3.00;;
65853;SDS011;52627;48.838;2.402;2022-10-14T06:21:20;7.40;;;3.90;;
65853;SDS011;52627;48.838;2.402;2022-10-14T06:23:47;5.50;;;3.30;;
65853;SDS011;52627;48.838;2.402;2022-10-14T06:26:15;5.70;;;3.20;;
65853;SDS011;52627;48.838;2.402;2022-10-14T06:28:43;6.40;;;3.70;;
65853;SDS011;52627;48.838;2.402;2022-10-14T06:31:10;6.90;;;4.40;;
65853;SDS011;52627;48.838;2.402;2022-10-14T06:33:39;6.10;;;4.00;;
65853;SDS011;52627;48.838;2.402;2022-10-14T06:36:08;6.90;;;3.70;;
65853;SDS011;52627;48.838;2.402;2022-10-14T06:38:36;6.50;;;3.70;;
65853;SDS011;52627;48.838;2.402;2022-10-14T06:41:03;6.50;;;3.70;;
65853;SDS011;52627;48.838;2.402;2022-10-14T06:43:31;6.20;;;3.40;;
65853;SDS011;52627;48.838;2.402;2022-10-14T06:45:58;6.40;;;3.50;;
65853;SDS011;52627;48.838;2.402;2022-10-14T06:48:26;5.20;;;3.20;;
65853;SDS011;52627;48.838;2.402;2022-10-14T06:50:53;5.10;;;3.10;;
65853;SDS011;52627;48.838;2.402;2022-10-14T06:53:21;7.10;;;3.30;;
65853;SDS011;52627;48.838;2.402;2022-10-14T06:55:48;7.70;;;4.00;;
65853;SDS011;52627;48.838;2.402;2022-10-14T06:58:15;6.70;;;3.30;;
65853;SDS011;52627;48.838;2.402;2022-10-14T07:00:43;5.20;;;3.40;;
65853;SDS011;52627;48.838;2.402;2022-10-14T07:05:41;7.00;;;3.30;;
65853;SDS011;52627;48.838;2.402;2022-10-14T07:08:08;6.50;;;3.20;;
65853;SDS011;52627;48.838;2.402;2022-10-14T07:10:41;6.30;;;3.60;;
65853;SDS011;52627;48.838;2.402;2022-10-14T07:13:09;6.60;;;2.80;;
65853;SDS011;52627;48.838;2.402;2022-10-14T07:15:37;5.60;;;2.90;;
65853;SDS011;52627;48.838;2.402;2022-10-14T07:18:05;7.80;;;3.70;;
65853;SDS011;52627;48.838;2.402;2022-10-14T07:20:33;5.50;;;2.60;;
65853;SDS011;52627;48.838;2.402;2022-10-14T07:23:00;5.90;;;2.70;;
65853;SDS011;52627;48.838;2.402;2022-10-14T07:25:28;4.60;;;2.40;;
65853;SDS011;52627;48.838;2.402;2022-10-14T07:27:55;5.80;;;2.50;;
65853;SDS011;52627;48.838;2.402;2022-10-14T07:30:22;6.80;;;2.20;;
65853;SDS011;52627;48.838;2.402;2022-10-14T07:32:50;5.90;;;2.30;;
65853;SDS011;52627;48.838;2.402;2022-10-14T07:35:17;4.50;;;1.60;;
65853;SDS011;52627;48.838;2.402;2022-10-14T07:37:45;5.30;;;1.60;;
65853;SDS011;52627;48.838;2.402;2022-10-14T07:40:13;4.90;;;1.70;;
65853;SDS011;52627;48.838;2.402;2022-10-14T07:42:41;6.60;;;1.90;;
65853;SDS011;52627;48.838;2.402;2022-10-14T07:45:09;4.60;;;1.80;;
65853;SDS011;52627;48.838;2.402;2022-10-14T07:47:43;4.60;;;1.50;;
65853;SDS011;52627;48.838;2.402;2022-10-14T07:50:11;5.20;;;1.80;;
65853;SDS011;52627;48.838;2.402;2022-10-14T07:52:40;7.70;;;2.10;;
65853;SDS011;52627;48.838;2.402;2022-10-14T07:55:07;4.30;;;1.80;;
65853;SDS011;52627;48.838;2.402;2022-10-14T07:57:35;5.50;;;2.10;;
65853;SDS011;52627;48.838;2.402;2022-10-14T08:00:03;4.30;;;1.80;;
65853;SDS011;52627;48.838;2.402;2022-10-14T08:02:31;4.50;;;1.70;;
65853;SDS011;52627;48.838;2.402;2022-10-14T08:04:58;5.60;;;1.70;;
65853;SDS011;52627;48.838;2.402;2022-10-14T08:07:46;4.70;;;1.70;;
65853;SDS011;52627;48.838;2.402;2022-10-14T08:10:14;6.10;;;1.60;;
65853;SDS011;52627;48.838;2.402;2022-10-14T08:12:42;4.10;;;1.80;;
65853;SDS011;52627;48.838;2.402;2022-10-14T08:15:09;4.10;;;1.80;;
65853;SDS011;52627;48.838;2.402;2022-10-14T08:17:37;3.60;;;1.50;;
65853;SDS011;52627;48.838;2.402;2022-10-14T08:20:04;7.70;;;2.30;;
65853;SDS011;52627;48.838;2.402;2022-10-14T08:22:32;5.30;;;2.20;;
65853;SDS011;52627;48.838;2.402;2022-10-14T08:25:00;4.30;;;2.30;;
65853;SDS011;52627;48.838;2.402;2022-10-14T08:27:27;5.70;;;2.00;;
65853;SDS011;52627;48.838;2.402;2022-10-14T08:29:55;5.90;;;1.70;;
65853;SDS011;52627;48.838;2.402;2022-10-14T08:32:22;6.00;;;1.60;;
65853;SDS011;52627;48.838;2.402;2022-10-14T08:34:50;3.10;;;1.50;;
65853;SDS011;52627;48.838;2.402;2022-10-14T08:37:18;4.50;;;1.60;;
65853;SDS011;52627;48.838;2.402;2022-10-14T08:39:46;4.00;;;1.70;;
65853;SDS011;52627;48.838;2.402;2022-10-14T08:42:24;4.00;;;1.70;;
65853;SDS011;52627;48.838;2.402;2022-10-14T08:48:13;5.00;;;1.70;;
65853;SDS011;52627;48.838;2.402;2022-10-14T08:50:47;6.10;;;2.40;;
65853;SDS011;52627;48.838;2.402;2022-10-14T08:53:21;3.80;;;1.70;;
65853;SDS011;52627;48.838;2.402;2022-10-14T08:55:59;3.90;;;1.60;;
65853;SDS011;52627;48.838;2.402;2022-10-14T08:58:36;3.70;;;1.80;;
65853;SDS011;52627;48.838;2.402;2022-10-14T09:03:55;6.40;;;2.30;;
65853;SDS011;52627;48.838;2.402;2022-10-14T09:06:28;4.30;;;1.90;;
65853;SDS011;52627;48.838;2.402;2022-10-14T09:09:09;5.90;;;2.10;;
65853;SDS011;52627;48.838;2.402;2022-10-14T09:12:05;4.40;;;1.80;;
65853;SDS011;52627;48.838;2.402;2022-10-14T09:14:40;4.00;;;1.80;;
65853;SDS011;52627;48.838;2.402;2022-10-14T09:17:24;5.10;;;1.70;;
65853;SDS011;52627;48.838;2.402;2022-10-14T09:22:41;3.70;;;1.80;;
65853;SDS011;52627;48.838;2.402;2022-10-14T09:25:14;3.60;;;1.70;;
65853;SDS011;52627;48.838;2.402;2022-10-14T09:27:41;6.30;;;2.10;;
65853;SDS011;52627;48.838;2.402;2022-10-14T09:30:14;6.20;;;2.10;;
65853;SDS011;52627;48.838;2.402;2022-10-14T09:32:44;3.80;;;1.90;;
65853;SDS011;52627;48.838;2.402;2022-10-14T09:35:41;6.00;;;2.10;;
65853;SDS011;52627;48.838;2.402;2022-10-14T09:38:11;4.30;;;2.10;;
65853;SDS011;52627;48.838;2.402;2022-10-14T09:40:43;6.30;;;1.90;;
65853;SDS011;52627;48.838;2.402;2022-10-14T09:43:18;4.90;;;2.10;;
65853;SDS011;52627;48.838;2.402;2022-10-14T09:45:57;5.20;;;2.20;;
65853;SDS011;52627;48.838;2.402;2022-10-14T09:48:32;5.70;;;1.80;;
65853;SDS011;52627;48.838;2.402;2022-10-14T09:51:17;5.10;;;2.00;;
65853;SDS011;52627;48.838;2.402;2022-10-14T09:53:52;5.80;;;2.30;;
65853;SDS011;52627;48.838;2.402;2022-10-14T09:56:56;5.20;;;2.30;;
65853;SDS011;52627;48.838;2.402;2022-10-14T09:59:26;6.50;;;2.40;;
65853;SDS011;52627;48.838;2.402;2022-10-14T10:01:59;6.50;;;2.70;;
65853;SDS011;52627;48.838;2.402;2022-10-14T10:04:35;5.50;;;2.70;;
65853;SDS011;52627;48.838;2.402;2022-10-14T10:07:32;6.10;;;2.80;;
65853;SDS011;52627;48.838;2.402;2022-10-14T10:10:15;5.10;;;2.70;;
65853;SDS011;52627;48.838;2.402;2022-10-14T10:12:45;5.30;;;2.50;;
65853;SDS011;52627;48.838;2.402;2022-10-14T10:15:18;5.30;;;2.20;;
65853;SDS011;52627;48.838;2.402;2022-10-14T10:17:48;6.20;;;2.40;;
65853;SDS011;52627;48.838;2.402;2022-10-14T10:20:26;6.10;;;2.10;;
65853;SDS011;52627;48.838;2.402;2022-10-14T10:23:23;4.60;;;2.20;;
65853;SDS011;52627;48.838;2.402;2022-10-14T10:25:51;4.90;;;2.10;;
65853;SDS011;52627;48.838;2.402;2022-10-14T10:28:27;4.80;;;2.30;;
65853;SDS011;52627;48.838;2.402;2022-10-14T10:34:30;4.50;;;2.50;;
65853;SDS011;52627;48.838;2.402;2022-10-14T10:37:22;3.80;;;2.40;;
65853;SDS011;52627;48.838;2.402;2022-10-14T10:43:11;6.80;;;3.00;;
65853;SDS011;52627;48.838;2.402;2022-10-14T10:49:04;6.30;;;2.80;;
65853;SDS011;52627;48.838;2.402;2022-10-14T10:52:05;4.50;;;2.50;;
65853;SDS011;52627;48.838;2.402;2022-10-14T10:54:56;3.90;;;2.50;;
65853;SDS011;52627;48.838;2.402;2022-10-14T11:00:25;4.60;;;2.40;;
65853;SDS011;52627;48.838;2.402;2022-10-14T11:05:47;5.40;;;2.20;;
65853;SDS011;52627;48.838;2.402;2022-10-14T11:11:50;5.80;;;2.70;;
65853;SDS011;52627;48.838;2.402;2022-10-14T11:14:47;4.50;;;2.70;;
65853;SDS011;52627;48.838;2.402;2022-10-14T11:20:45;5.40;;;2.60;;
65853;SDS011;52627;48.838;2.402;2022-10-14T11:26:24;5.90;;;3.00;;
65853;SDS011;52627;48.838;2.402;2022-10-14T11:29:58;6.30;;;3.50;;
65853;SDS011;52627;48.838;2.402;2022-10-14T11:32:32;4.80;;;2.90;;
65853;SDS011;52627;48.838;2.402;2022-10-14T11:44:14;3.70;;;1.50;;
65853;SDS011;52627;48.838;2.402;2022-10-14T11:47:29;3.20;;;1.80;;
65853;SDS011;52627;48.838;2.402;2022-10-14T11:50:16;3.40;;;1.80;;
65853;SDS011;52627;48.838;2.402;2022-10-14T11:52:56;3.90;;;1.60;;
65853;SDS011;52627;48.838;2.402;2022-10-14T11:55:35;4.20;;;1.80;;
65853;SDS011;52627;48.838;2.402;2022-10-14T11:58:16;3.80;;;1.60;;
65853;SDS011;52627;48.838;2.402;2022-10-14T12:00:50;4.10;;;1.60;;
65853;SDS011;52627;48.838;2.402;2022-10-14T12:06:48;4.60;;;1.70;;
65853;SDS011;52627;48.838;2.402;2022-10-14T12:12:08;4.00;;;1.60;;
65853;SDS011;52627;48.838;2.402;2022-10-14T12:14:46;5.00;;;1.70;;
65853;SDS011;52627;48.838;2.402;2022-10-14T12:17:28;3.00;;;1.30;;
65853;SDS011;52627;48.838;2.402;2022-10-14T12:20:02;4.90;;;1.70;;
65853;SDS011;52627;48.838;2.402;2022-10-14T12:22:40;3.70;;;1.80;;
65853;SDS011;52627;48.838;2.402;2022-10-14T12:25:12;3.50;;;2.00;;
65853;SDS011;52627;48.838;2.402;2022-10-14T12:27:43;3.40;;;2.00;;
65853;SDS011;52627;48.838;2.402;2022-10-14T12:30:35;2.70;;;1.60;;
65853;SDS011;52627;48.838;2.402;2022-10-14T12:33:07;5.30;;;2.20;;
65853;SDS011;52627;48.838;2.402;2022-10-14T12:38:20;3.30;;;1.90;;
65853;SDS011;52627;48.838;2.402;2022-10-14T12:40:48;3.70;;;2.20;;
65853;SDS011;52627;48.838;2.402;2022-10-14T12:43:18;4.40;;;2.10;;
65853;SDS011;52627;48.838;2.402;2022-10-14T12:46:00;5.40;;;2.50;;
65853;SDS011;52627;48.838;2.402;2022-10-14T12:48:33;5.00;;;2.70;;
65853;SDS011;52627;48.838;2.402;2022-10-14T12:51:11;6.80;;;3.10;;
65853;SDS011;52627;48.838;2.402;2022-10-14T12:54:11;6.90;;;3.00;;
65853;SDS011;52627;48.838;2.402;2022-10-14T12:56:53;4.50;;;2.20;;
65853;SDS011;52627;48.838;2.402;2022-10-14T12:59:34;5.00;;;3.00;;
65853;SDS011;52627;48.838;2.402;2022-10-14T13:02:16;4.20;;;2.70;;
65853;SDS011;52627;48.838;2.402;2022-10-14T13:04:47;5.10;;;2.30;;
65853;SDS011;52627;48.838;2.402;2022-10-14T13:16:08;5.80;;;3.00;;
65853;SDS011;52627;48.838;2.402;2022-10-14T13:24:16;6.90;;;3.70;;
65853;SDS011;52627;48.838;2.402;2022-10-14T13:32:31;5.80;;;3.20;;
65853;SDS011;52627;48.838;2.402;2022-10-14T13:38:04;4.40;;;2.40;;
65853;SDS011;52627;48.838;2.402;2022-10-14T13:40:38;5.20;;;3.00;;
65853;SDS011;52627;48.838;2.402;2022-10-14T13:43:26;5.20;;;2.80;;
65853;SDS011;52627;48.838;2.402;2022-10-14T13:46:05;4.40;;;2.50;;
65853;SDS011;52627;48.838;2.402;2022-10-14T13:48:47;5.70;;;2.60;;
65853;SDS011;52627;48.838;2.402;2022-10-14T13:51:25;4.60;;;2.80;;
65853;SDS011;52627;48.838;2.402;2022-10-14T13:56:57;5.10;;;3.00;;
65853;SDS011;52627;48.838;2.402;2022-10-14T13:59:50;5.30;;;2.70;;
65853;SDS011;52627;48.838;2.402;2022-10-14T14:02:38;7.10;;;3.00;;
65853;SDS011;52627;48.838;2.402;2022-10-14T14:05:13;4.60;;;2.50;;
65853;SDS011;52627;48.838;2.402;2022-10-14T14:07:43;6.20;;;3.00;;
65853;SDS011;52627;48.838;2.402;2022-10-14T14:10:31;6.40;;;2.70;;
65853;SDS011;52627;48.838;2.402;2022-10-14T14:13:05;4.70;;;2.50;;
65853;SDS011;52627;48.838;2.402;2022-10-14T14:15:33;4.10;;;2.00;;
65853;SDS011;52627;48.838;2.402;2022-10-14T14:18:01;4.50;;;2.10;;
65853;SDS011;52627;48.838;2.402;2022-10-14T14:20:28;3.10;;;1.60;;
65853;SDS011;52627;48.838;2.402;2022-10-14T14:25:28;4.50;;;1.90;;
65853;SDS011;52627;48.838;2.402;2022-10-14T14:28:02;3.60;;;1.80;;
65853;SDS011;52627;48.838;2.402;2022-10-14T14:30:36;4.50;;;2.00;;
65853;SDS011;52627;48.838;2.402;2022-10-14T14:33:15;4.90;;;1.80;;
65853;SDS011;52627;48.838;2.402;2022-10-14T14:35:52;3.00;;;1.80;;
65853;SDS011;52627;48.838;2.402;2022-10-14T14:43:30;5.50;;;2.40;;
65853;SDS011;52627;48.838;2.402;2022-10-14T14:46:04;6.90;;;2.30;;
65853;SDS011;52627;48.838;2.402;2022-10-14T14:48:33;4.00;;;2.10;;
65853;SDS011;52627;48.838;2.402;2022-10-14T14:51:00;3.90;;;1.90;;
65853;SDS011;52627;48.838;2.402;2022-10-14T14:53:28;3.90;;;2.20;;
65853;SDS011;52627;48.838;2.402;2022-10-14T14:56:05;3.60;;;2.10;;
65853;SDS011;52627;48.838;2.402;2022-10-14T14:58:47;5.00;;;2.70;;
65853;SDS011;52627;48.838;2.402;2022-10-14T15:01:22;4.00;;;2.10;;
65853;SDS011;52627;48.838;2.402;2022-10-14T15:03:57;4.30;;;2.40;;
65853;SDS011;52627;48.838;2.402;2022-10-14T15:06:58;3.80;;;2.30;;
65853;SDS011;52627;48.838;2.402;2022-10-14T15:09:46;3.70;;;2.50;;
65853;SDS011;52627;48.838;2.402;2022-10-14T15:12:17;4.70;;;3.30;;
65853;SDS011;52627;48.838;2.402;2022-10-14T15:14:52;6.00;;;3.20;;
65853;SDS011;52627;48.838;2.402;2022-10-14T15:17:32;4.90;;;3.30;;
65853;SDS011;52627;48.838;2.402;2022-10-14T15:27:58;5.70;;;4.00;;
65853;SDS011;52627;48.838;2.402;2022-10-14T15:33:20;4.80;;;3.40;;
65853;SDS011;52627;48.838;2.402;2022-10-14T15:35:59;6.50;;;3.40;;
65853;SDS011;52627;48.838;2.402;2022-10-14T15:38:30;4.80;;;3.20;;
65853;SDS011;52627;48.838;2.402;2022-10-14T15:41:03;4.90;;;3.20;;
65853;SDS011;52627;48.838;2.402;2022-10-14T15:43:31;6.00;;;3.30;;
65853;SDS011;52627;48.838;2.402;2022-10-14T15:46:00;6.20;;;3.50;;
65853;SDS011;52627;48.838;2.402;2022-10-14T15:48:49;5.80;;;3.70;;
65853;SDS011;52627;48.838;2.402;2022-10-14T15:51:27;6.70;;;3.60;;
65853;SDS011;52627;48.838;2.402;2022-10-14T15:53:56;5.60;;;3.40;;
65853;SDS011;52627;48.838;2.402;2022-10-14T15:56:24;5.90;;;4.10;;
65853;SDS011;52627;48.838;2.402;2022-10-14T15:58:51;5.40;;;3.80;;
65853;SDS011;52627;48.838;2.402;2022-10-14T16:01:20;6.50;;;3.90;;
65853;SDS011;52627;48.838;2.402;2022-10-14T16:03:49;5.70;;;3.50;;
65853;SDS011;52627;48.838;2.402;2022-10-14T16:06:21;8.10;;;4.10;;
65853;SDS011;52627;48.838;2.402;2022-10-14T16:08:50;6.50;;;4.00;;
65853;SDS011;52627;48.838;2.402;2022-10-14T16:11:28;5.70;;;3.80;;
65853;SDS011;52627;48.838;2.402;2022-10-14T16:13:57;5.40;;;4.00;;
65853;SDS011;52627;48.838;2.402;2022-10-14T16:16:30;5.60;;;3.80;;
65853;SDS011;52627;48.838;2.402;2022-10-14T16:19:00;5.90;;;4.40;;
65853;SDS011;52627;48.838;2.402;2022-10-14T16:21:28;6.90;;;4.00;;
65853;SDS011;52627;48.838;2.402;2022-10-14T16:23:56;5.50;;;3.80;;
65853;SDS011;52627;48.838;2.402;2022-10-14T16:26:25;5.40;;;3.90;;
65853;SDS011;52627;48.838;2.402;2022-10-14T16:28:52;7.10;;;3.70;;
65853;SDS011;52627;48.838;2.402;2022-10-14T16:31:20;6.20;;;4.00;;
65853;SDS011;52627;48.838;2.402;2022-10-14T16:33:49;6.30;;;4.00;;
65853;SDS011;52627;48.838;2.402;2022-10-14T16:36:17;6.40;;;3.60;;
65853;SDS011;52627;48.838;2.402;2022-10-14T16:38:44;7.90;;;3.90;;
65853;SDS011;52627;48.838;2.402;2022-10-14T16:41:12;5.70;;;3.90;;
65853;SDS011;52627;48.838;2.402;2022-10-14T16:43:39;6.30;;;4.30;;
65853;SDS011;52627;48.838;2.402;2022-10-14T16:46:07;8.70;;;4.70;;
65853;SDS011;52627;48.838;2.402;2022-10-14T16:48:40;6.50;;;4.40;;
65853;SDS011;52627;48.838;2.402;2022-10-14T16:51:08;7.00;;;4.00;;
65853;SDS011;52627;48.838;2.402;2022-10-14T16:53:35;7.10;;;4.70;;
65853;SDS011;52627;48.838;2.402;2022-10-14T16:56:19;6.70;;;4.60;;
65853;SDS011;52627;48.838;2.402;2022-10-14T16:59:05;6.80;;;4.40;;
65853;SDS011;52627;48.838;2.402;2022-10-14T17:01:34;8.10;;;4.70;;
65853;SDS011;52627;48.838;2.402;2022-10-14T17:04:01;8.40;;;4.90;;
65853;SDS011;52627;48.838;2.402;2022-10-14T17:06:29;8.00;;;4.50;;
65853;SDS011;52627;48.838;2.402;2022-10-14T17:08:56;6.90;;;4.60;;
65853;SDS011;52627;48.838;2.402;2022-10-14T17:11:24;9.50;;;6.10;;
65853;SDS011;52627;48.838;2.402;2022-10-14T17:13:57;11.00;;;6.60;;
65853;SDS011;52627;48.838;2.402;2022-10-14T17:16:25;10.40;;;6.20;;
65853;SDS011;52627;48.838;2.402;2022-10-14T17:18:56;8.40;;;5.40;;
65853;SDS011;52627;48.838;2.402;2022-10-14T17:21:24;7.90;;;5.00;;
65853;SDS011;52627;48.838;2.402;2022-10-14T17:23:59;6.30;;;4.20;;